Time;durP1;ratioP1;P1;durP2;ratioP2;P2;SDS_P1;SDS_P2;PMS_P1;PMS_P2;Temp;Humidity;BMP_temperature;BMP_pressure;BME280_temperature;BME280_humidity;BME280_pressure;Samples;Min_cycle;Max_cycle;Signal;HPM_P1;HPM_P2
2023/10/14 00:00:41;;;;;;;6.85;3.92;;;17.40;64.80;;;;;;5136067;27;20286;-69
2023/10/14 00:03:24;;;;;;;7.43;3.80;;;17.40;63.40;;;;;;5135901;27;20198;-69
2023/10/14 00:05:50;;;;;;;5.47;3.90;;;17.50;63.60;;;;;;5136067;27;20206;-69
2023/10/14 00:08:17;;;;;;;7.90;4.15;;;17.40;63.20;;;;;;5135737;27;20191;-68
2023/10/14 00:10:44;;;;;;;8.55;3.67;;;17.40;63.80;;;;;;5135527;27;20233;-68
2023/10/14 00:13:16;;;;;;;7.78;3.70;;;17.40;62.80;;;;;;5135404;27;20215;-68
2023/10/14 00:15:43;;;;;;;4.53;3.42;;;17.40;63.10;;;;;;5135515;27;20551;-68
2023/10/14 00:18:11;;;;;;;10.20;4.25;;;17.50;62.00;;;;;;5135527;27;20195;-68
2023/10/14 00:20:38;;;;;;;6.95;4.38;;;17.50;64.60;;;;;;5135569;27;20199;-68
2023/10/14 00:23:05;;;;;;;10.35;4.70;;;17.50;63.60;;;;;;5134917;27;20195;-69
2023/10/14 00:25:33;;;;;;;5.63;3.60;;;17.40;64.40;;;;;;5135243;27;20306;-67
2023/10/14 00:28:06;;;;;;;7.15;4.28;;;17.50;62.60;;;;;;5135420;27;20223;-69
2023/10/14 00:30:33;;;;;;;10.00;3.63;;;17.50;62.00;;;;;;5135359;27;20586;-68
2023/10/14 00:32:59;;;;;;;7.05;3.92;;;17.50;62.50;;;;;;5134918;27;20239;-68
2023/10/14 00:35:27;;;;;;;4.03;3.42;;;17.60;60.70;;;;;;5135234;27;20248;-68
2023/10/14 00:37:55;;;;;;;8.95;3.72;;;17.70;60.40;;;;;;5135209;27;20554;-68
2023/10/14 00:40:23;;;;;;;8.48;3.65;;;17.60;60.10;;;;;;5135188;27;20241;-68
2023/10/14 00:42:51;;;;;;;7.68;3.90;;;17.60;60.30;;;;;;5135123;27;20232;-68
2023/10/14 00:45:20;;;;;;;6.07;3.92;;;17.70;59.60;;;;;;5135084;27;20210;-68
2023/10/14 00:47:48;;;;;;;8.43;3.55;;;17.70;60.60;;;;;;5135136;27;20203;-69
2023/10/14 00:50:28;;;;;;;6.07;3.75;;;17.70;60.80;;;;;;5134703;27;20654;-67
2023/10/14 00:52:57;;;;;;;9.77;3.92;;;17.60;61.00;;;;;;5134764;27;20219;-68
2023/10/14 00:55:27;;;;;;;6.18;4.20;;;17.50;63.20;;;;;;5134729;27;20214;-69
2023/10/14 00:57:55;;;;;;;6.05;3.67;;;17.40;62.30;;;;;;5134525;27;20198;-68
2023/10/14 01:00:34;;;;;;;7.32;3.80;;;17.30;61.70;;;;;;5134624;27;20278;-68
2023/10/14 01:03:09;;;;;;;5.90;4.07;;;17.40;61.90;;;;;;5134385;27;20203;-68
2023/10/14 01:05:36;;;;;;;7.10;3.90;;;17.40;60.70;;;;;;5134472;27;20205;-68
2023/10/14 01:08:11;;;;;;;9.00;3.70;;;17.40;62.90;;;;;;5134260;27;20701;-68
2023/10/14 01:10:38;;;;;;;6.80;3.92;;;17.30;61.90;;;;;;5134782;27;20203;-68
2023/10/14 01:13:13;;;;;;;4.53;3.60;;;17.50;61.50;;;;;;5134115;27;20570;-68
2023/10/14 01:15:43;;;;;;;6.13;3.53;;;17.60;60.80;;;;;;5134542;27;20259;-68
2023/10/14 01:18:12;;;;;;;5.15;3.42;;;17.60;62.70;;;;;;5134368;27;20195;-69
2023/10/14 01:20:40;;;;;;;6.63;3.60;;;17.60;60.90;;;;;;5134321;27;20611;-69
2023/10/14 01:23:14;;;;;;;5.15;3.58;;;17.70;60.10;;;;;;5134100;27;20202;-68
2023/10/14 01:25:47;;;;;;;5.93;3.35;;;17.80;59.40;;;;;;5134063;27;20199;-68
2023/10/14 01:28:15;;;;;;;4.05;3.33;;;17.90;59.20;;;;;;5134205;27;20229;-68
2023/10/14 01:31:23;;;;;;;6.13;3.53;;;17.90;59.60;;;;;;5134043;27;20198;-68
2023/10/14 01:33:50;;;;;;;5.10;3.67;;;18.00;59.10;;;;;;5133040;27;20274;-68
2023/10/14 01:36:16;;;;;;;4.70;3.70;;;18.00;59.10;;;;;;5133787;27;20229;-68
2023/10/14 01:38:57;;;;;;;8.32;3.70;;;17.90;59.50;;;;;;5133874;27;20206;-68
2023/10/14 01:41:24;;;;;;;8.10;3.78;;;17.90;59.80;;;;;;5134018;27;20199;-68
2023/10/14 01:43:51;;;;;;;5.55;3.88;;;17.80;59.60;;;;;;5133804;27;20227;-68
2023/10/14 01:46:21;;;;;;;7.32;3.58;;;17.80;59.80;;;;;;5133704;27;20636;-68
2023/10/14 01:48:52;;;;;;;5.40;3.40;;;17.70;60.40;;;;;;5133678;27;20251;-68
2023/10/14 01:51:19;;;;;;;6.85;3.50;;;17.70;60.70;;;;;;5133973;27;20198;-69
2023/10/14 01:53:47;;;;;;;5.25;3.65;;;17.60;60.90;;;;;;5133851;27;20317;-68
2023/10/14 01:56:14;;;;;;;5.93;3.70;;;17.70;61.20;;;;;;5133675;27;20195;-69
2023/10/14 01:58:41;;;;;;;5.28;4.10;;;17.60;62.90;;;;;;5133687;27;20199;-68
2023/10/14 02:01:12;;;;;;;10.07;4.40;;;17.60;61.70;;;;;;5133566;27;20194;-68
2023/10/14 02:03:43;;;;;;;8.27;3.60;;;17.70;61.70;;;;;;5134044;28;20286;-68
2023/10/14 02:06:13;;;;;;;4.72;3.50;;;17.70;61.00;;;;;;5133811;28;20195;-68
2023/10/14 02:08:40;;;;;;;5.78;4.10;;;17.80;62.90;;;;;;5133544;27;20199;-68
2023/10/14 02:11:09;;;;;;;5.90;4.15;;;17.80;62.10;;;;;;5133561;28;20677;-68
2023/10/14 02:13:36;;;;;;;6.25;3.88;;;18.00;62.60;;;;;;5133438;28;20222;-68
2023/10/14 02:16:06;;;;;;;7.43;4.25;;;18.20;62.70;;;;;;5133668;28;20203;-68
2023/10/14 02:18:36;;;;;;;8.88;4.35;;;18.30;63.30;;;;;;5133638;27;20220;-68
2023/10/14 02:21:11;;;;;;;7.47;4.13;;;18.50;63.30;;;;;;5133494;28;20194;-68
2023/10/14 02:23:45;;;;;;;7.45;4.60;;;18.70;63.80;;;;;;5133511;28;20190;-68
2023/10/14 02:26:17;;;;;;;7.45;4.28;;;18.80;64.30;;;;;;5133319;27;20199;-68
2023/10/14 02:28:46;;;;;;;10.30;4.85;;;19.00;64.30;;;;;;5133598;27;20202;-68
2023/10/14 02:31:17;;;;;;;8.23;4.65;;;19.00;64.50;;;;;;5133337;28;20244;-69
2023/10/14 02:33:46;;;;;;;14.77;5.10;;;19.20;64.70;;;;;;5133124;27;20256;-68
2023/10/14 02:36:15;;;;;;;9.57;5.00;;;19.20;65.00;;;;;;5133254;27;20240;-68
2023/10/14 02:38:43;;;;;;;7.63;4.43;;;19.40;65.70;;;;;;5133083;27;20313;-69
2023/10/14 02:41:10;;;;;;;6.40;5.18;;;19.60;66.70;;;;;;5133334;28;20191;-68
2023/10/14 02:43:38;;;;;;;7.93;5.28;;;19.60;66.70;;;;;;5133315;28;20199;-68
2023/10/14 02:46:10;;;;;;;10.60;5.25;;;19.80;67.10;;;;;;5135727;27;20672;-68
2023/10/14 02:48:52;;;;;;;9.77;5.18;;;19.90;66.80;;;;;;5137171;27;20599;-68
2023/10/14 02:51:29;;;;;;;9.02;5.93;;;20.00;67.50;;;;;;5137067;27;20195;-68
2023/10/14 02:53:58;;;;;;;8.25;5.45;;;19.90;68.70;;;;;;5137456;27;20241;-68
2023/10/14 02:56:33;;;;;;;12.88;5.88;;;20.00;69.50;;;;;;5137313;27;20195;-68
2023/10/14 02:59:01;;;;;;;11.93;6.13;;;20.10;70.30;;;;;;5136939;27;20593;-68
2023/10/14 03:01:31;;;;;;;12.73;5.85;;;20.00;71.30;;;;;;5136870;27;20202;-68
2023/10/14 03:04:09;;;;;;;8.40;6.45;;;20.00;72.20;;;;;;5137015;27;20551;-68
2023/10/14 03:06:46;;;;;;;8.75;6.10;;;20.00;72.60;;;;;;5136764;27;20252;-69
2023/10/14 03:09:17;;;;;;;9.10;5.85;;;20.00;73.50;;;;;;5136731;27;20785;-68
2023/10/14 03:11:44;;;;;;;12.65;6.22;;;19.90;74.30;;;;;;5136733;27;20670;-68
2023/10/14 03:14:12;;;;;;;10.88;6.45;;;19.90;75.10;;;;;;5136559;27;20688;-67
2023/10/14 03:16:39;;;;;;;8.90;6.40;;;19.90;76.10;;;;;;5136913;27;20297;-68
2023/10/14 03:19:06;;;;;;;12.50;6.85;;;19.90;76.60;;;;;;5136788;27;20195;-68
2023/10/14 03:21:35;;;;;;;13.85;6.55;;;19.70;77.60;;;;;;5136782;27;20290;-68
2023/10/14 03:24:03;;;;;;;11.93;7.20;;;19.80;78.90;;;;;;5136380;27;20203;-68
2023/10/14 03:26:32;;;;;;;11.93;6.82;;;19.70;80.20;;;;;;5136422;27;20199;-68
2023/10/14 03:29:04;;;;;;;14.25;7.18;;;19.80;81.20;;;;;;5136594;27;20287;-68
2023/10/14 03:31:35;;;;;;;15.43;7.05;;;19.80;82.80;;;;;;5136599;27;20203;-68
2023/10/14 03:34:08;;;;;;;15.20;7.53;;;19.80;83.50;;;;;;5136357;27;20615;-68
2023/10/14 03:36:35;;;;;;;12.20;7.63;;;19.70;84.30;;;;;;5136352;27;20325;-68
2023/10/14 03:39:18;;;;;;;11.75;7.35;;;19.70;85.20;;;;;;5136142;27;20604;-68
2023/10/14 03:41:48;;;;;;;9.60;6.93;;;19.70;86.00;;;;;;5136353;27;20191;-68
2023/10/14 03:44:15;;;;;;;13.70;7.95;;;19.70;86.60;;;;;;5136225;27;20276;-68
2023/10/14 03:46:43;;;;;;;11.68;7.38;;;19.70;87.20;;;;;;5136038;27;20658;-69
2023/10/14 03:49:20;;;;;;;12.00;6.88;;;19.70;87.50;;;;;;5136127;27;20238;-68
2023/10/14 03:51:49;;;;;;;13.70;7.88;;;19.80;87.40;;;;;;5136238;27;20194;-69
2023/10/14 03:54:23;;;;;;;11.65;7.32;;;19.70;87.70;;;;;;5136034;27;20218;-68
2023/10/14 03:56:50;;;;;;;9.82;6.70;;;19.70;88.40;;;;;;5135178;27;20202;-69
2023/10/14 03:59:21;;;;;;;16.45;7.40;;;19.70;89.10;;;;;;5135866;27;20195;-68
2023/10/14 04:01:54;;;;;;;16.17;7.68;;;19.60;89.40;;;;;;5135891;27;20603;-68
2023/10/14 04:04:21;;;;;;;10.75;7.15;;;19.50;89.90;;;;;;5135988;27;20183;-67
2023/10/14 04:07:12;;;;;;;11.95;6.90;;;19.50;90.20;;;;;;5135853;27;20195;-67
2023/10/14 04:09:43;;;;;;;11.88;7.25;;;19.50;90.40;;;;;;5135430;27;20203;-68
2023/10/14 04:12:22;;;;;;;13.82;7.10;;;19.50;90.80;;;;;;5135617;27;20203;-67
2023/10/14 04:14:54;;;;;;;11.27;6.95;;;19.50;91.10;;;;;;5135698;27;20562;-68
2023/10/14 04:17:30;;;;;;;11.55;7.35;;;19.50;91.40;;;;;;5135489;27;20546;-67
2023/10/14 04:20:14;;;;;;;11.07;7.18;;;19.50;91.50;;;;;;5135344;27;20195;-67
2023/10/14 04:22:41;;;;;;;11.38;7.45;;;19.50;91.80;;;;;;5135243;27;20207;-67
2023/10/14 04:25:18;;;;;;;10.55;8.00;;;19.60;91.80;;;;;;5135269;27;20210;-68
2023/10/14 04:28:03;;;;;;;12.73;7.93;;;19.60;91.70;;;;;;5135363;27;20243;-68
2023/10/14 04:30:32;;;;;;;9.93;7.32;;;19.50;91.90;;;;;;5135360;27;20190;-68
2023/10/14 04:35:57;;;;;;;12.77;7.25;;;19.60;91.90;;;;;;5134714;27;20219;-68
2023/10/14 04:38:28;;;;;;;15.57;7.53;;;19.50;92.10;;;;;;5135231;27;20195;-68
2023/10/14 04:40:58;;;;;;;12.55;7.53;;;19.50;92.40;;;;;;5135010;27;20231;-68
2023/10/14 04:43:49;;;;;;;13.05;7.65;;;19.40;92.60;;;;;;5134972;27;20202;-68
2023/10/14 04:46:19;;;;;;;10.45;7.28;;;19.40;92.70;;;;;;5135205;27;20195;-68
2023/10/14 04:48:51;;;;;;;11.23;7.80;;;19.50;92.70;;;;;;5135097;27;20237;-68
2023/10/14 04:51:19;;;;;;;15.80;7.63;;;19.50;92.80;;;;;;5134877;27;20195;-68
2023/10/14 04:53:46;;;;;;;9.90;7.60;;;19.50;92.90;;;;;;5134560;27;20603;-68
2023/10/14 04:56:21;;;;;;;11.98;7.47;;;19.50;92.90;;;;;;5134833;27;20539;-68
2023/10/14 04:58:52;;;;;;;7.95;7.03;;;19.50;92.90;;;;;;5134828;27;20614;-68
2023/10/14 05:01:19;;;;;;;12.10;7.38;;;19.50;93.00;;;;;;5134895;27;20191;-68
2023/10/14 05:03:47;;;;;;;11.35;7.38;;;19.50;93.00;;;;;;5134627;27;20319;-68
2023/10/14 05:06:15;;;;;;;10.88;7.47;;;19.50;92.80;;;;;;5134604;27;20203;-68
2023/10/14 05:08:45;;;;;;;11.02;7.15;;;19.50;93.60;;;;;;5134328;27;20199;-68
2023/10/14 05:11:13;;;;;;;9.52;6.45;;;19.30;95.20;;;;;;5134690;27;20278;-68
2023/10/14 05:13:42;;;;;;;8.52;6.18;;;18.70;99.00;;;;;;5134437;27;20218;-69
2023/10/14 05:16:16;;;;;;;9.18;5.57;;;18.30;99.90;;;;;;5134753;27;20237;-68
2023/10/14 05:18:58;;;;;;;8.15;5.30;;;17.80;99.90;;;;;;5134581;27;20198;-69
2023/10/14 05:21:36;;;;;;;10.35;5.95;;;17.40;99.90;;;;;;5134253;27;20285;-69
2023/10/14 05:24:03;;;;;;;7.70;5.38;;;17.20;99.90;;;;;;5134508;27;20217;-69
2023/10/14 05:26:35;;;;;;;8.45;5.38;;;17.00;99.90;;;;;;5134316;27;20282;-68
2023/10/14 05:29:11;;;;;;;8.18;5.63;;;16.80;99.90;;;;;;5134220;27;20190;-68
2023/10/14 05:31:37;;;;;;;6.65;4.97;;;16.70;99.90;;;;;;5134130;27;20204;-69
2023/10/14 05:34:05;;;;;;;10.52;4.80;;;16.70;99.90;;;;;;5133915;27;20238;-68
2023/10/14 05:36:34;;;;;;;8.82;5.82;;;16.70;99.90;;;;;;5134195;27;20305;-68
2023/10/14 05:39:03;;;;;;;7.85;5.75;;;16.80;99.90;;;;;;5134098;27;20195;-68
2023/10/14 05:41:29;;;;;;;5.60;4.80;;;16.90;99.90;;;;;;5134041;27;20285;-68
2023/10/14 05:43:56;;;;;;;6.50;5.13;;;17.10;99.90;;;;;;5134006;27;20195;-68
2023/10/14 05:46:23;;;;;;;8.55;5.03;;;17.10;99.90;;;;;;5134096;27;20252;-68
2023/10/14 05:48:53;;;;;;;9.90;4.88;;;17.20;99.90;;;;;;5133761;27;20650;-68
2023/10/14 05:51:19;;;;;;;8.68;4.97;;;17.20;99.90;;;;;;5133774;27;20657;-68
2023/10/14 05:53:47;;;;;;;5.85;3.90;;;17.30;99.90;;;;;;5133647;27;20650;-69
2023/10/14 05:56:15;;;;;;;7.13;4.50;;;17.20;99.90;;;;;;5133427;27;20279;-66
2023/10/14 05:58:42;;;;;;;9.57;4.07;;;17.20;99.90;;;;;;5133570;27;20203;-68
2023/10/14 06:01:09;;;;;;;7.95;4.28;;;17.10;99.90;;;;;;5133762;28;20596;-67
2023/10/14 06:03:36;;;;;;;7.95;4.15;;;17.10;99.90;;;;;;5133680;28;20277;-67
2023/10/14 06:06:03;;;;;;;6.68;4.22;;;17.10;99.90;;;;;;5133766;27;20202;-67
2023/10/14 06:08:32;;;;;;;7.75;3.97;;;17.10;99.90;;;;;;5133833;28;20205;-67
2023/10/14 06:11:01;;;;;;;14.00;3.85;;;17.00;99.90;;;;;;5133671;28;20217;-67
2023/10/14 06:13:28;;;;;;;8.02;3.67;;;17.00;99.90;;;;;;5133663;28;20206;-68
2023/10/14 06:15:54;;;;;;;7.22;3.78;;;17.00;99.90;;;;;;5134287;28;20617;-70
2023/10/14 06:18:21;;;;;;;5.35;3.40;;;17.00;99.90;;;;;;5134367;28;20195;-69
2023/10/14 06:20:47;;;;;;;8.63;3.17;;;17.10;99.90;;;;;;5136138;27;20195;-70
2023/10/14 06:23:15;;;;;;;5.03;3.00;;;17.00;99.90;;;;;;5137703;27;20201;-68
2023/10/14 06:25:43;;;;;;;7.35;3.45;;;17.00;99.90;;;;;;5137694;27;20255;-69
2023/10/14 06:28:11;;;;;;;7.78;3.15;;;17.00;99.90;;;;;;5137991;27;20291;-70
2023/10/14 06:30:37;;;;;;;7.13;3.45;;;17.00;99.90;;;;;;5137941;27;20282;-68
2023/10/14 06:33:05;;;;;;;7.80;3.42;;;17.00;99.90;;;;;;5137478;27;20279;-69
2023/10/14 06:35:32;;;;;;;4.75;2.90;;;17.00;99.90;;;;;;5137533;27;20226;-67
2023/10/14 06:37:59;;;;;;;7.60;3.17;;;17.00;99.90;;;;;;5137544;27;20217;-67
2023/10/14 06:40:35;;;;;;;8.23;3.47;;;17.00;99.90;;;;;;5137325;27;20201;-68
2023/10/14 06:43:06;;;;;;;7.05;3.38;;;17.00;99.90;;;;;;5137559;27;20217;-69
2023/10/14 06:45:35;;;;;;;4.80;3.35;;;17.00;99.90;;;;;;5137380;27;20199;-68
2023/10/14 06:48:04;;;;;;;6.53;3.10;;;17.00;99.90;;;;;;5137366;27;20566;-68
2023/10/14 06:50:32;;;;;;;7.22;3.92;;;16.90;99.90;;;;;;5137194;27;20191;-68
2023/10/14 06:52:59;;;;;;;4.10;3.30;;;16.90;99.90;;;;;;5137048;27;20230;-68
2023/10/14 06:55:26;;;;;;;7.32;3.08;;;16.90;99.90;;;;;;5137194;27;20238;-68
2023/10/14 06:57:55;;;;;;;9.07;3.70;;;16.90;99.90;;;;;;5137169;27;20195;-69
2023/10/14 07:00:29;;;;;;;7.38;3.15;;;16.90;99.90;;;;;;5137051;27;20224;-69
2023/10/14 07:02:59;;;;;;;5.88;3.20;;;16.90;99.90;;;;;;5136972;27;20668;-69
2023/10/14 07:05:26;;;;;;;8.60;2.90;;;16.90;99.90;;;;;;5136670;27;20248;-68
2023/10/14 07:07:53;;;;;;;4.28;3.00;;;16.90;99.90;;;;;;5136900;27;20255;-68
2023/10/14 07:10:27;;;;;;;5.50;3.15;;;17.00;99.90;;;;;;5137046;27;20195;-68
2023/10/14 07:12:57;;;;;;;6.32;2.80;;;17.00;99.90;;;;;;5136849;27;20217;-68
2023/10/14 07:15:24;;;;;;;7.35;2.58;;;17.00;99.90;;;;;;5136756;27;20222;-68
2023/10/14 07:17:50;;;;;;;5.60;2.97;;;17.00;99.90;;;;;;5136503;27;20714;-68
2023/10/14 07:20:18;;;;;;;4.47;2.35;;;17.10;99.90;;;;;;5136555;27;20650;-68
2023/10/14 07:22:45;;;;;;;5.15;2.63;;;17.20;99.90;;;;;;5136493;27;20642;-69
2023/10/14 07:25:12;;;;;;;7.70;3.60;;;17.20;99.90;;;;;;5136700;27;20373;-69
2023/10/14 07:27:39;;;;;;;4.82;2.85;;;17.20;99.90;;;;;;5136704;27;20195;-69
2023/10/14 07:30:14;;;;;;;5.38;2.78;;;17.10;99.90;;;;;;5136342;27;20607;-69
2023/10/14 07:32:43;;;;;;;3.33;2.33;;;17.20;99.90;;;;;;5135034;27;20573;-69
2023/10/14 07:35:11;;;;;;;5.80;2.65;;;17.20;99.90;;;;;;5136563;27;20219;-69
2023/10/14 07:37:42;;;;;;;5.75;2.50;;;17.20;99.90;;;;;;5136390;27;20199;-69
2023/10/14 07:40:12;;;;;;;4.78;2.72;;;17.30;99.90;;;;;;5136131;27;20672;-67
2023/10/14 07:42:39;;;;;;;5.45;2.38;;;17.40;99.90;;;;;;5136101;27;20283;-68
2023/10/14 07:45:10;;;;;;;5.15;2.92;;;17.30;99.90;;;;;;5136132;27;20217;-69
2023/10/14 07:47:37;;;;;;;4.85;2.58;;;17.20;99.90;;;;;;5121088;27;20555;-70
2023/10/14 07:50:09;;;;;;;4.50;2.30;;;17.20;99.90;;;;;;5115505;28;20200;-69
2023/10/14 07:52:36;;;;;;;4.75;2.50;;;17.10;99.90;;;;;;5115448;28;20207;-70
2023/10/14 07:55:04;;;;;;;6.85;2.70;;;17.10;99.90;;;;;;5115299;28;20219;-69
2023/10/14 07:57:31;;;;;;;6.95;2.40;;;17.10;99.90;;;;;;5115264;28;20287;-68
2023/10/14 08:00:09;;;;;;;4.82;2.70;;;17.10;99.90;;;;;;5115756;27;20287;-70
2023/10/14 08:02:36;;;;;;;6.32;2.60;;;17.30;99.90;;;;;;5115353;28;20196;-69
2023/10/14 08:05:05;;;;;;;5.15;2.65;;;17.60;99.90;;;;;;5115192;28;20199;-68
2023/10/14 08:07:33;;;;;;;4.80;2.67;;;17.80;99.90;;;;;;5115213;28;20230;-69
2023/10/14 08:10:16;;;;;;;4.18;2.42;;;17.80;99.90;;;;;;5115147;28;20200;-69
2023/10/14 08:12:45;;;;;;;3.88;2.08;;;17.80;99.90;;;;;;5115192;28;20287;-68
2023/10/14 08:15:12;;;;;;;3.40;1.95;;;17.90;99.90;;;;;;5115056;28;20215;-68
2023/10/14 08:17:40;;;;;;;4.18;2.22;;;17.70;99.90;;;;;;5117132;27;20199;-69
2023/10/14 08:20:12;;;;;;;4.78;2.45;;;18.00;99.90;;;;;;5135482;27;20272;-69
2023/10/14 08:22:39;;;;;;;2.55;1.83;;;18.20;99.90;;;;;;5135337;27;20195;-68
2023/10/14 08:25:07;;;;;;;3.08;1.95;;;18.10;99.90;;;;;;5135495;27;20737;-69
2023/10/14 08:27:34;;;;;;;3.78;2.30;;;18.30;99.90;;;;;;5135595;27;20199;-73
2023/10/14 08:30:10;;;;;;;3.40;1.70;;;18.30;99.90;;;;;;5135486;27;20191;-70
2023/10/14 08:32:37;;;;;;;4.68;2.22;;;17.10;99.90;;;;;;5135195;27;20201;-69
2023/10/14 08:35:14;;;;;;;4.10;3.03;;;17.10;99.90;;;;;;5134698;27;20268;-70
2023/10/14 08:37:47;;;;;;;4.53;2.20;;;16.40;99.90;;;;;;5135269;27;20286;-70
2023/10/14 08:40:16;;;;;;;3.25;2.15;;;16.70;99.90;;;;;;5135154;27;20250;-70
2023/10/14 08:42:49;;;;;;;2.88;2.15;;;16.80;99.90;;;;;;5134733;27;20251;-69
2023/10/14 08:45:19;;;;;;;5.05;2.25;;;16.90;99.90;;;;;;5134923;27;20242;-68
2023/10/14 08:47:50;;;;;;;5.35;2.40;;;16.80;99.90;;;;;;5138394;27;20252;-69
2023/10/14 08:50:18;;;;;;;4.80;2.33;;;17.10;99.90;;;;;;5137730;27;20278;-70
2023/10/14 08:52:46;;;;;;;5.13;2.15;;;16.80;99.90;;;;;;5135380;27;20190;-69
2023/10/14 08:55:15;;;;;;;6.13;2.63;;;16.90;99.90;;;;;;5134733;27;20313;-69
2023/10/14 08:57:43;;;;;;;3.85;2.20;;;16.80;99.90;;;;;;5134679;27;20199;-69
2023/10/14 09:00:12;;;;;;;2.65;1.70;;;16.70;99.90;;;;;;5134582;27;20199;-70
2023/10/14 09:02:41;;;;;;;1.95;1.75;;;16.40;99.90;;;;;;5134407;27;20206;-68
2023/10/14 09:05:11;;;;;;;2.20;1.88;;;16.20;99.90;;;;;;5134702;27;20248;-69
2023/10/14 09:07:39;;;;;;;4.13;1.70;;;16.10;99.90;;;;;;5134647;27;20199;-69
2023/10/14 09:10:07;;;;;;;3.20;1.80;;;16.20;99.90;;;;;;5134369;27;20227;-69
2023/10/14 09:12:34;;;;;;;5.13;2.30;;;16.10;99.90;;;;;;5134233;27;20203;-69
2023/10/14 09:15:00;;;;;;;4.77;1.90;;;16.00;99.90;;;;;;5134290;27;20251;-70
2023/10/14 09:17:28;;;;;;;3.42;2.10;;;15.90;99.90;;;;;;5134362;27;20211;-70
2023/10/14 09:19:56;;;;;;;4.90;1.63;;;15.70;99.90;;;;;;5134496;27;20281;-70
2023/10/14 09:22:24;;;;;;;4.97;1.30;;;14.60;99.90;;;;;;5134323;27;20191;-70
2023/10/14 09:24:52;;;;;;;1.57;1.10;;;14.00;99.90;;;;;;5133928;27;20198;-72
2023/10/14 09:27:19;;;;;;;4.20;1.30;;;13.80;99.90;;;;;;5134497;27;20259;-71
2023/10/14 09:29:46;;;;;;;2.80;1.10;;;13.60;99.90;;;;;;5134320;27;20555;-71
2023/10/14 09:32:13;;;;;;;3.40;1.00;;;13.50;99.90;;;;;;5134408;27;20199;-71
2023/10/14 09:34:41;;;;;;;2.87;1.40;;;13.50;99.90;;;;;;5134100;27;20567;-71
2023/10/14 09:37:12;;;;;;;2.77;1.50;;;13.50;99.90;;;;;;5134118;27;20250;-72
2023/10/14 09:39:41;;;;;;;3.67;1.47;;;13.50;99.90;;;;;;5133999;27;20215;-72
2023/10/14 09:42:11;;;;;;;1.73;1.63;;;13.50;99.90;;;;;;5134330;27;20271;-72
2023/10/14 09:44:40;;;;;;;3.47;1.80;;;13.50;99.90;;;;;;5134199;27;20282;-71
2023/10/14 09:47:12;;;;;;;3.93;1.80;;;13.60;99.90;;;;;;5134188;27;20201;-71
2023/10/14 09:49:39;;;;;;;2.30;1.53;;;13.70;99.90;;;;;;5134094;27;20267;-70
2023/10/14 09:52:06;;;;;;;6.27;1.50;;;13.60;99.90;;;;;;5133908;27;20191;-71
2023/10/14 09:54:36;;;;;;;2.60;1.50;;;13.50;99.90;;;;;;5133507;27;20315;-70
2023/10/14 09:57:03;;;;;;;1.93;1.30;;;13.60;99.90;;;;;;5133612;27;20679;-71
2023/10/14 09:59:33;;;;;;;1.60;1.20;;;13.70;99.90;;;;;;5133868;27;20199;-70
2023/10/14 10:01:59;;;;;;;1.20;1.10;;;13.90;99.90;;;;;;5133784;28;20263;-71
2023/10/14 10:04:32;;;;;;;2.67;1.57;;;13.70;99.90;;;;;;5133741;28;20232;-71
2023/10/14 10:07:15;;;;;;;1.30;1.20;;;13.60;99.90;;;;;;5133922;28;20206;-71
2023/10/14 10:10:11;;;;;;;2.13;1.20;;;13.60;99.90;;;;;;5133878;28;20615;-71
2023/10/14 10:12:41;;;;;;;0.90;0.90;;;13.70;99.90;;;;;;5131593;28;20256;-71
2023/10/14 10:15:09;;;;;;;1.63;1.20;;;13.40;99.90;;;;;;5133634;28;20209;-71
2023/10/14 10:17:38;;;;;;;1.43;1.00;;;13.50;99.90;;;;;;5133746;28;20223;-71
2023/10/14 10:20:10;;;;;;;2.43;1.10;;;13.50;99.90;;;;;;5133650;28;20191;-71
2023/10/14 10:22:50;;;;;;;2.00;1.10;;;13.50;99.90;;;;;;5133729;28;20199;-72
2023/10/14 10:25:18;;;;;;;1.20;1.10;;;13.70;99.90;;;;;;5133302;28;20277;-72
2023/10/14 10:27:49;;;;;;;1.30;1.20;;;13.80;99.90;;;;;;5133799;28;20204;-72
2023/10/14 10:30:17;;;;;;;1.37;1.07;;;13.70;99.90;;;;;;5133647;28;20222;-72
2023/10/14 10:32:48;;;;;;;1.80;1.33;;;13.60;99.90;;;;;;5133485;28;20649;-72
2023/10/14 10:35:19;;;;;;;1.60;1.30;;;13.60;99.90;;;;;;5133651;28;20195;-72
2023/10/14 10:37:48;;;;;;;1.70;1.10;;;13.60;99.90;;;;;;5133491;28;20274;-72
2023/10/14 10:40:22;;;;;;;1.23;1.00;;;13.60;99.90;;;;;;5133409;28;20646;-73
2023/10/14 10:42:53;;;;;;;1.17;1.07;;;13.60;99.90;;;;;;5133652;28;20654;-73
2023/10/14 10:45:21;;;;;;;1.40;1.30;;;13.50;99.90;;;;;;5133662;28;20862;-73
2023/10/14 10:47:54;;;;;;;1.30;1.20;;;13.40;99.90;;;;;;5133747;28;20203;-73
2023/10/14 10:50:21;;;;;;;1.47;1.10;;;13.60;99.90;;;;;;5133296;28;20206;-73
2023/10/14 10:53:17;;;;;;;1.73;1.20;;;13.40;99.90;;;;;;5133298;28;20649;-72
2023/10/14 10:55:47;;;;;;;2.37;1.43;;;13.50;99.90;;;;;;5133293;28;20202;-73
2023/10/14 10:58:15;;;;;;;2.80;1.40;;;13.50;99.90;;;;;;5133314;28;20199;-73
2023/10/14 11:00:45;;;;;;;1.63;1.50;;;13.40;99.90;;;;;;5131380;28;20192;-72
2023/10/14 11:03:14;;;;;;;3.17;1.60;;;13.50;99.90;;;;;;5133398;28;20546;-73
2023/10/14 11:05:41;;;;;;;2.00;1.40;;;13.80;99.90;;;;;;5133491;27;20202;-71
2023/10/14 11:08:08;;;;;;;2.07;1.60;;;13.70;99.90;;;;;;5136996;27;20203;-70
2023/10/14 11:10:38;;;;;;;2.70;1.63;;;13.70;99.90;;;;;;5136945;27;20232;-71
2023/10/14 11:13:08;;;;;;;3.50;2.13;;;13.70;99.90;;;;;;5136776;27;20286;-70
2023/10/14 11:15:37;;;;;;;2.63;1.40;;;13.80;99.90;;;;;;5136688;27;20305;-71
2023/10/14 11:18:06;;;;;;;2.27;1.40;;;13.80;99.90;;;;;;5136903;27;20203;-71
2023/10/14 11:20:36;;;;;;;2.20;1.33;;;13.90;99.90;;;;;;5136844;27;20202;-71
2023/10/14 11:23:04;;;;;;;1.70;1.60;;;13.60;99.90;;;;;;5136799;27;20191;-69
2023/10/14 11:25:31;;;;;;;2.03;1.33;;;13.60;99.90;;;;;;5136485;27;20719;-69
2023/10/14 11:27:58;;;;;;;2.07;1.80;;;13.80;99.90;;;;;;5136427;27;20195;-69
2023/10/14 11:30:27;;;;;;;1.40;1.30;;;13.90;99.90;;;;;;5136668;27;20198;-69
2023/10/14 11:32:58;;;;;;;1.30;1.20;;;13.90;99.90;;;;;;5136418;27;20222;-70
2023/10/14 11:35:28;;;;;;;1.93;1.63;;;14.00;99.90;;;;;;5136591;27;20318;-71
2023/10/14 11:38:00;;;;;;;1.40;1.30;;;14.40;99.90;;;;;;5136231;27;20218;-71
2023/10/14 11:40:33;;;;;;;2.20;1.30;;;14.50;99.90;;;;;;5136193;27;20197;-70
2023/10/14 11:42:59;;;;;;;2.07;1.30;;;14.00;99.90;;;;;;5136387;27;20247;-71
2023/10/14 11:45:28;;;;;;;1.63;1.20;;;14.20;99.90;;;;;;5136270;27;20256;-71
2023/10/14 11:47:55;;;;;;;1.40;1.30;;;14.20;99.90;;;;;;5136214;27;20569;-72
2023/10/14 11:50:21;;;;;;;1.33;1.23;;;14.30;99.90;;;;;;5136222;27;20707;-72
2023/10/14 11:52:52;;;;;;;1.33;1.20;;;14.10;99.90;;;;;;5135954;27;20199;-72
2023/10/14 11:55:20;;;;;;;2.07;1.30;;;14.40;99.90;;;;;;5136722;27;20290;-73
2023/10/14 11:57:48;;;;;;;1.80;1.50;;;14.10;99.90;;;;;;5136004;27;20230;-73
2023/10/14 12:00:17;;;;;;;1.57;1.47;;;14.10;99.90;;;;;;5136009;27;20195;-74
2023/10/14 12:02:45;;;;;;;1.67;1.57;;;14.10;99.90;;;;;;5135864;27;20260;-73
2023/10/14 12:05:13;;;;;;;2.63;1.63;;;14.40;99.90;;;;;;5135979;27;20195;-74
2023/10/14 12:07:40;;;;;;;2.10;1.83;;;15.20;99.90;;;;;;5135532;27;20214;-73
2023/10/14 12:10:08;;;;;;;2.80;1.60;;;15.30;99.90;;;;;;5135860;27;20243;-74
2023/10/14 12:12:37;;;;;;;4.55;1.60;;;14.90;99.90;;;;;;5135780;27;20286;-73
2023/10/14 12:15:05;;;;;;;2.17;1.70;;;14.70;99.90;;;;;;5135713;27;20278;-69
2023/10/14 12:17:32;;;;;;;2.60;1.70;;;14.20;99.90;;;;;;5134724;27;20226;-71
2023/10/14 12:20:04;;;;;;;2.23;1.83;;;14.20;99.90;;;;;;5135462;27;20543;-72
2023/10/14 12:22:31;;;;;;;2.53;1.73;;;14.10;99.90;;;;;;5135528;27;20195;-82
2023/10/14 12:24:57;;;;;;;2.37;2.13;;;14.10;99.90;;;;;;5135278;27;20638;-71
2023/10/14 12:27:25;;;;;;;2.50;2.30;;;14.00;99.90;;;;;;5134549;27;20195;-71
2023/10/14 12:29:52;;;;;;;6.90;2.33;;;13.80;99.90;;;;;;5135337;27;20198;-70
2023/10/14 12:32:19;;;;;;;2.50;2.30;;;13.80;99.90;;;;;;5135362;27;20195;-70
2023/10/14 12:34:46;;;;;;;2.50;2.30;;;13.70;99.90;;;;;;5134011;27;20280;-70
2023/10/14 12:37:18;;;;;;;3.13;2.40;;;13.60;99.90;;;;;;5135320;27;20233;-70
2023/10/14 12:39:49;;;;;;;4.03;2.57;;;13.50;99.90;;;;;;5135305;27;20202;-70
2023/10/14 12:42:17;;;;;;;3.60;2.40;;;13.30;99.90;;;;;;5135580;27;20203;-69
2023/10/14 12:44:47;;;;;;;3.20;2.43;;;13.20;99.90;;;;;;5135146;27;20202;-69
2023/10/14 12:47:14;;;;;;;5.07;2.40;;;13.10;99.90;;;;;;5135451;27;20203;-70
2023/10/14 12:49:41;;;;;;;3.90;2.57;;;12.90;99.90;;;;;;5135213;27;20248;-69
2023/10/14 12:52:12;;;;;;;4.17;2.80;;;12.90;99.90;;;;;;5135069;27;20195;-70
2023/10/14 12:54:40;;;;;;;3.13;2.83;;;12.80;99.90;;;;;;5135059;27;20260;-69
2023/10/14 12:57:08;;;;;;;5.17;2.87;;;12.80;99.90;;;;;;5134522;27;20227;-69
2023/10/14 12:59:39;;;;;;;4.57;3.00;;;12.70;99.90;;;;;;5135010;27;20195;-69
2023/10/14 13:02:08;;;;;;;4.57;3.10;;;12.60;99.90;;;;;;5135244;27;20199;-69